sensor_id;sensor_type;location;lat;lon;timestamp;P1;durP1;ratioP1;P2;durP2;ratioP2
51260;SDS011;61705;46.228;24.812;2023-04-25T00:01:54;22.67;;;12.48;;
51260;SDS011;61705;46.228;24.812;2023-04-25T00:04:22;24.95;;;13.27;;
51260;SDS011;61705;46.228;24.812;2023-04-25T00:06:50;24.10;;;12.45;;
51260;SDS011;61705;46.228;24.812;2023-04-25T00:09:18;26.98;;;13.30;;
51260;SDS011;61705;46.228;24.812;2023-04-25T00:11:45;22.15;;;12.13;;
51260;SDS011;61705;46.228;24.812;2023-04-25T00:14:11;25.17;;;13.00;;
51260;SDS011;61705;46.228;24.812;2023-04-25T00:16:38;27.25;;;12.52;;
51260;SDS011;61705;46.228;24.812;2023-04-25T00:19:10;25.52;;;12.82;;
51260;SDS011;61705;46.228;24.812;2023-04-25T00:21:37;25.20;;;12.27;;
51260;SDS011;61705;46.228;24.812;2023-04-25T00:24:07;24.05;;;12.15;;
51260;SDS011;61705;46.228;24.812;2023-04-25T00:26:34;22.58;;;11.45;;
51260;SDS011;61705;46.228;24.812;2023-04-25T00:29:02;25.10;;;12.13;;
51260;SDS011;61705;46.228;24.812;2023-04-25T00:31:29;19.05;;;11.88;;
51260;SDS011;61705;46.228;24.812;2023-04-25T00:33:56;22.08;;;12.38;;
51260;SDS011;61705;46.228;24.812;2023-04-25T00:36:22;22.38;;;11.73;;
51260;SDS011;61705;46.228;24.812;2023-04-25T00:38:52;22.48;;;12.45;;
51260;SDS011;61705;46.228;24.812;2023-04-25T00:41:20;22.25;;;12.13;;
51260;SDS011;61705;46.228;24.812;2023-04-25T00:43:47;26.30;;;12.75;;
51260;SDS011;61705;46.228;24.812;2023-04-25T00:46:15;22.65;;;13.15;;
51260;SDS011;61705;46.228;24.812;2023-04-25T00:48:41;23.23;;;12.93;;
51260;SDS011;61705;46.228;24.812;2023-04-25T00:51:08;20.55;;;12.60;;
51260;SDS011;61705;46.228;24.812;2023-04-25T00:53:42;22.85;;;12.93;;
51260;SDS011;61705;46.228;24.812;2023-04-25T00:56:09;29.20;;;13.48;;
51260;SDS011;61705;46.228;24.812;2023-04-25T00:58:36;24.40;;;14.45;;
51260;SDS011;61705;46.228;24.812;2023-04-25T01:01:04;25.52;;;12.20;;
51260;SDS011;61705;46.228;24.812;2023-04-25T01:03:33;22.35;;;12.32;;
51260;SDS011;61705;46.228;24.812;2023-04-25T01:06:02;25.05;;;13.20;;
51260;SDS011;61705;46.228;24.812;2023-04-25T01:08:29;24.80;;;12.77;;
51260;SDS011;61705;46.228;24.812;2023-04-25T01:10:59;26.33;;;12.95;;
51260;SDS011;61705;46.228;24.812;2023-04-25T01:13:26;22.23;;;13.05;;
51260;SDS011;61705;46.228;24.812;2023-04-25T01:15:53;19.27;;;12.07;;
51260;SDS011;61705;46.228;24.812;2023-04-25T01:18:20;26.05;;;12.98;;
51260;SDS011;61705;46.228;24.812;2023-04-25T01:20:48;27.83;;;14.30;;
51260;SDS011;61705;46.228;24.812;2023-04-25T01:23:18;27.40;;;14.50;;
51260;SDS011;61705;46.228;24.812;2023-04-25T01:25:46;24.70;;;12.85;;
51260;SDS011;61705;46.228;24.812;2023-04-25T01:28:14;22.20;;;12.48;;
51260;SDS011;61705;46.228;24.812;2023-04-25T01:30:41;25.65;;;13.40;;
51260;SDS011;61705;46.228;24.812;2023-04-25T01:33:09;24.30;;;14.07;;
51260;SDS011;61705;46.228;24.812;2023-04-25T01:35:39;23.77;;;12.95;;
51260;SDS011;61705;46.228;24.812;2023-04-25T01:38:06;28.55;;;13.05;;
51260;SDS011;61705;46.228;24.812;2023-04-25T01:40:36;23.67;;;12.30;;
51260;SDS011;61705;46.228;24.812;2023-04-25T01:43:05;21.27;;;12.10;;
51260;SDS011;61705;46.228;24.812;2023-04-25T01:45:32;23.08;;;12.32;;
51260;SDS011;61705;46.228;24.812;2023-04-25T01:47:59;23.90;;;13.10;;
51260;SDS011;61705;46.228;24.812;2023-04-25T01:50:26;24.58;;;13.23;;
51260;SDS011;61705;46.228;24.812;2023-04-25T01:52:53;22.00;;;12.88;;
51260;SDS011;61705;46.228;24.812;2023-04-25T01:55:20;25.35;;;13.40;;
51260;SDS011;61705;46.228;24.812;2023-04-25T01:57:47;23.92;;;13.40;;
51260;SDS011;61705;46.228;24.812;2023-04-25T02:00:14;25.60;;;13.60;;
51260;SDS011;61705;46.228;24.812;2023-04-25T02:02:40;23.77;;;13.35;;
51260;SDS011;61705;46.228;24.812;2023-04-25T02:05:07;25.80;;;13.60;;
51260;SDS011;61705;46.228;24.812;2023-04-25T02:07:34;26.80;;;13.95;;
51260;SDS011;61705;46.228;24.812;2023-04-25T02:10:01;29.88;;;14.75;;
51260;SDS011;61705;46.228;24.812;2023-04-25T02:12:31;29.42;;;13.07;;
51260;SDS011;61705;46.228;24.812;2023-04-25T02:14:58;26.98;;;12.82;;
51260;SDS011;61705;46.228;24.812;2023-04-25T02:17:25;24.52;;;13.63;;
51260;SDS011;61705;46.228;24.812;2023-04-25T02:19:52;21.55;;;12.73;;
51260;SDS011;61705;46.228;24.812;2023-04-25T02:22:19;23.08;;;13.85;;
51260;SDS011;61705;46.228;24.812;2023-04-25T02:24:46;23.45;;;14.18;;
51260;SDS011;61705;46.228;24.812;2023-04-25T02:27:12;24.00;;;14.18;;
51260;SDS011;61705;46.228;24.812;2023-04-25T02:29:39;27.33;;;15.10;;
51260;SDS011;61705;46.228;24.812;2023-04-25T02:32:06;21.60;;;12.98;;
51260;SDS011;61705;46.228;24.812;2023-04-25T02:34:34;26.60;;;14.07;;
51260;SDS011;61705;46.228;24.812;2023-04-25T02:37:01;25.92;;;15.27;;
51260;SDS011;61705;46.228;24.812;2023-04-25T02:39:28;25.17;;;14.73;;
51260;SDS011;61705;46.228;24.812;2023-04-25T02:41:55;24.58;;;13.65;;
51260;SDS011;61705;46.228;24.812;2023-04-25T02:44:22;26.05;;;13.98;;
51260;SDS011;61705;46.228;24.812;2023-04-25T02:46:48;23.63;;;13.48;;
51260;SDS011;61705;46.228;24.812;2023-04-25T02:49:15;26.70;;;14.27;;
51260;SDS011;61705;46.228;24.812;2023-04-25T02:51:42;28.13;;;14.95;;
51260;SDS011;61705;46.228;24.812;2023-04-25T02:54:09;31.60;;;15.00;;
51260;SDS011;61705;46.228;24.812;2023-04-25T02:56:36;28.58;;;14.52;;
51260;SDS011;61705;46.228;24.812;2023-04-25T02:59:02;28.42;;;14.65;;
51260;SDS011;61705;46.228;24.812;2023-04-25T03:01:29;24.67;;;14.98;;
51260;SDS011;61705;46.228;24.812;2023-04-25T03:03:56;32.08;;;15.68;;
51260;SDS011;61705;46.228;24.812;2023-04-25T03:06:22;26.05;;;15.07;;
51260;SDS011;61705;46.228;24.812;2023-04-25T03:08:49;26.40;;;14.35;;
51260;SDS011;61705;46.228;24.812;2023-04-25T03:11:16;26.60;;;15.52;;
51260;SDS011;61705;46.228;24.812;2023-04-25T03:13:43;26.25;;;13.05;;
51260;SDS011;61705;46.228;24.812;2023-04-25T03:16:09;24.95;;;13.07;;
51260;SDS011;61705;46.228;24.812;2023-04-25T03:18:36;25.23;;;13.63;;
51260;SDS011;61705;46.228;24.812;2023-04-25T03:21:06;25.15;;;13.90;;
51260;SDS011;61705;46.228;24.812;2023-04-25T03:23:35;22.17;;;13.02;;
51260;SDS011;61705;46.228;24.812;2023-04-25T03:26:01;44.30;;;16.58;;
51260;SDS011;61705;46.228;24.812;2023-04-25T03:28:28;28.40;;;14.68;;
51260;SDS011;61705;46.228;24.812;2023-04-25T03:30:55;23.85;;;13.25;;
51260;SDS011;61705;46.228;24.812;2023-04-25T03:33:22;28.35;;;14.80;;
51260;SDS011;61705;46.228;24.812;2023-04-25T03:35:48;24.20;;;14.55;;
51260;SDS011;61705;46.228;24.812;2023-04-25T03:38:17;25.08;;;13.63;;
51260;SDS011;61705;46.228;24.812;2023-04-25T03:40:44;22.58;;;12.93;;
51260;SDS011;61705;46.228;24.812;2023-04-25T03:43:11;21.45;;;12.95;;
51260;SDS011;61705;46.228;24.812;2023-04-25T03:45:37;23.90;;;13.15;;
51260;SDS011;61705;46.228;24.812;2023-04-25T03:48:04;29.55;;;13.88;;
51260;SDS011;61705;46.228;24.812;2023-04-25T03:50:34;22.42;;;12.93;;
51260;SDS011;61705;46.228;24.812;2023-04-25T03:53:03;26.58;;;14.02;;
51260;SDS011;61705;46.228;24.812;2023-04-25T03:55:31;21.35;;;12.18;;
51260;SDS011;61705;46.228;24.812;2023-04-25T03:57:58;24.35;;;13.32;;
51260;SDS011;61705;46.228;24.812;2023-04-25T04:00:25;23.77;;;13.00;;
51260;SDS011;61705;46.228;24.812;2023-04-25T04:02:52;22.08;;;12.88;;
51260;SDS011;61705;46.228;24.812;2023-04-25T04:05:18;21.65;;;12.60;;
51260;SDS011;61705;46.228;24.812;2023-04-25T04:07:45;24.17;;;13.23;;
51260;SDS011;61705;46.228;24.812;2023-04-25T04:10:15;23.08;;;13.25;;
51260;SDS011;61705;46.228;24.812;2023-04-25T04:12:42;24.20;;;13.57;;
51260;SDS011;61705;46.228;24.812;2023-04-25T04:15:08;22.88;;;12.48;;
51260;SDS011;61705;46.228;24.812;2023-04-25T04:17:36;21.65;;;12.20;;
51260;SDS011;61705;46.228;24.812;2023-04-25T04:20:03;21.98;;;12.45;;
51260;SDS011;61705;46.228;24.812;2023-04-25T04:22:30;23.98;;;13.20;;
51260;SDS011;61705;46.228;24.812;2023-04-25T04:24:57;20.75;;;12.95;;
51260;SDS011;61705;46.228;24.812;2023-04-25T04:27:23;25.80;;;13.20;;
51260;SDS011;61705;46.228;24.812;2023-04-25T04:29:50;25.60;;;13.93;;
51260;SDS011;61705;46.228;24.812;2023-04-25T04:32:19;25.48;;;14.48;;
51260;SDS011;61705;46.228;24.812;2023-04-25T04:34:46;27.85;;;14.10;;
51260;SDS011;61705;46.228;24.812;2023-04-25T04:37:15;26.50;;;15.45;;
51260;SDS011;61705;46.228;24.812;2023-04-25T04:39:41;30.15;;;14.82;;
51260;SDS011;61705;46.228;24.812;2023-04-25T04:42:08;32.10;;;14.93;;
51260;SDS011;61705;46.228;24.812;2023-04-25T04:44:35;31.08;;;15.45;;
51260;SDS011;61705;46.228;24.812;2023-04-25T04:47:03;26.20;;;15.57;;
51260;SDS011;61705;46.228;24.812;2023-04-25T04:49:32;25.05;;;14.00;;
51260;SDS011;61705;46.228;24.812;2023-04-25T04:51:59;24.40;;;14.20;;
51260;SDS011;61705;46.228;24.812;2023-04-25T04:54:26;28.92;;;14.80;;
51260;SDS011;61705;46.228;24.812;2023-04-25T04:56:53;25.48;;;14.63;;
51260;SDS011;61705;46.228;24.812;2023-04-25T04:59:20;46.80;;;17.02;;
51260;SDS011;61705;46.228;24.812;2023-04-25T05:01:50;59.63;;;25.23;;
51260;SDS011;61705;46.228;24.812;2023-04-25T05:04:19;40.83;;;19.98;;
51260;SDS011;61705;46.228;24.812;2023-04-25T05:06:46;27.88;;;13.75;;
51260;SDS011;61705;46.228;24.812;2023-04-25T05:09:14;28.38;;;15.23;;
51260;SDS011;61705;46.228;24.812;2023-04-25T05:11:41;20.60;;;11.88;;
51260;SDS011;61705;46.228;24.812;2023-04-25T05:14:11;32.33;;;14.32;;
51260;SDS011;61705;46.228;24.812;2023-04-25T05:16:37;27.80;;;12.63;;
51260;SDS011;61705;46.228;24.812;2023-04-25T05:19:06;26.08;;;12.77;;
51260;SDS011;61705;46.228;24.812;2023-04-25T05:21:33;22.35;;;11.88;;
51260;SDS011;61705;46.228;24.812;2023-04-25T05:24:03;26.95;;;13.57;;
51260;SDS011;61705;46.228;24.812;2023-04-25T05:26:33;24.30;;;12.80;;
51260;SDS011;61705;46.228;24.812;2023-04-25T05:29:00;26.23;;;12.93;;
51260;SDS011;61705;46.228;24.812;2023-04-25T05:31:27;33.38;;;15.27;;
51260;SDS011;61705;46.228;24.812;2023-04-25T05:33:53;27.25;;;14.30;;
51260;SDS011;61705;46.228;24.812;2023-04-25T05:36:23;41.00;;;15.88;;
51260;SDS011;61705;46.228;24.812;2023-04-25T05:38:50;37.85;;;15.63;;
51260;SDS011;61705;46.228;24.812;2023-04-25T05:41:18;25.25;;;13.68;;
51260;SDS011;61705;46.228;24.812;2023-04-25T05:43:48;44.00;;;18.67;;
51260;SDS011;61705;46.228;24.812;2023-04-25T05:46:16;38.92;;;19.55;;
51260;SDS011;61705;46.228;24.812;2023-04-25T05:48:46;34.10;;;16.77;;
51260;SDS011;61705;46.228;24.812;2023-04-25T05:51:13;27.95;;;15.40;;
51260;SDS011;61705;46.228;24.812;2023-04-25T05:53:39;31.10;;;13.77;;
51260;SDS011;61705;46.228;24.812;2023-04-25T05:56:06;32.92;;;17.77;;
51260;SDS011;61705;46.228;24.812;2023-04-25T05:58:33;46.13;;;18.02;;
51260;SDS011;61705;46.228;24.812;2023-04-25T06:01:00;34.80;;;16.13;;
51260;SDS011;61705;46.228;24.812;2023-04-25T06:03:27;24.25;;;12.40;;
51260;SDS011;61705;46.228;24.812;2023-04-25T06:05:54;27.15;;;12.20;;
51260;SDS011;61705;46.228;24.812;2023-04-25T06:08:22;69.25;;;15.18;;
51260;SDS011;61705;46.228;24.812;2023-04-25T06:10:48;35.22;;;13.38;;
51260;SDS011;61705;46.228;24.812;2023-04-25T06:13:15;34.47;;;17.20;;
51260;SDS011;61705;46.228;24.812;2023-04-25T06:15:42;53.28;;;15.40;;
51260;SDS011;61705;46.228;24.812;2023-04-25T06:18:09;29.55;;;12.23;;
51260;SDS011;61705;46.228;24.812;2023-04-25T06:20:36;44.13;;;14.75;;
51260;SDS011;61705;46.228;24.812;2023-04-25T06:23:03;55.30;;;19.13;;
51260;SDS011;61705;46.228;24.812;2023-04-25T06:25:30;53.05;;;18.50;;
51260;SDS011;61705;46.228;24.812;2023-04-25T06:27:56;62.20;;;16.90;;
51260;SDS011;61705;46.228;24.812;2023-04-25T06:30:23;56.35;;;17.23;;
51260;SDS011;61705;46.228;24.812;2023-04-25T06:32:52;43.58;;;15.43;;
51260;SDS011;61705;46.228;24.812;2023-04-25T06:35:19;33.10;;;14.32;;
51260;SDS011;61705;46.228;24.812;2023-04-25T06:37:46;34.95;;;14.55;;
51260;SDS011;61705;46.228;24.812;2023-04-25T06:40:13;39.72;;;16.63;;
51260;SDS011;61705;46.228;24.812;2023-04-25T06:42:41;52.55;;;21.30;;
51260;SDS011;61705;46.228;24.812;2023-04-25T06:45:10;66.75;;;25.80;;
51260;SDS011;61705;46.228;24.812;2023-04-25T06:47:37;64.75;;;27.92;;
51260;SDS011;61705;46.228;24.812;2023-04-25T06:50:04;37.33;;;18.17;;
51260;SDS011;61705;46.228;24.812;2023-04-25T06:52:32;30.52;;;13.75;;
51260;SDS011;61705;46.228;24.812;2023-04-25T06:55:01;43.35;;;14.00;;
51260;SDS011;61705;46.228;24.812;2023-04-25T06:57:29;42.75;;;16.80;;
51260;SDS011;61705;46.228;24.812;2023-04-25T06:59:58;34.08;;;13.48;;
51260;SDS011;61705;46.228;24.812;2023-04-25T07:02:27;42.60;;;17.13;;
51260;SDS011;61705;46.228;24.812;2023-04-25T07:04:54;42.13;;;18.35;;
51260;SDS011;61705;46.228;24.812;2023-04-25T07:07:28;27.73;;;12.40;;
51260;SDS011;61705;46.228;24.812;2023-04-25T07:09:55;30.63;;;14.80;;
51260;SDS011;61705;46.228;24.812;2023-04-25T07:12:21;33.75;;;14.10;;
51260;SDS011;61705;46.228;24.812;2023-04-25T07:14:48;30.00;;;13.52;;
51260;SDS011;61705;46.228;24.812;2023-04-25T07:17:15;33.85;;;15.02;;
51260;SDS011;61705;46.228;24.812;2023-04-25T07:19:42;22.90;;;12.07;;
51260;SDS011;61705;46.228;24.812;2023-04-25T07:22:09;24.33;;;11.20;;
51260;SDS011;61705;46.228;24.812;2023-04-25T07:24:36;25.08;;;10.93;;
51260;SDS011;61705;46.228;24.812;2023-04-25T07:27:03;21.58;;;11.75;;
51260;SDS011;61705;46.228;24.812;2023-04-25T07:29:30;27.88;;;11.10;;
51260;SDS011;61705;46.228;24.812;2023-04-25T07:31:57;34.80;;;15.32;;
51260;SDS011;61705;46.228;24.812;2023-04-25T07:34:24;28.20;;;11.77;;
51260;SDS011;61705;46.228;24.812;2023-04-25T07:36:51;20.02;;;11.13;;
51260;SDS011;61705;46.228;24.812;2023-04-25T07:39:20;31.85;;;10.82;;
51260;SDS011;61705;46.228;24.812;2023-04-25T07:41:51;41.25;;;18.83;;
51260;SDS011;61705;46.228;24.812;2023-04-25T07:44:20;71.50;;;23.20;;
51260;SDS011;61705;46.228;24.812;2023-04-25T07:46:47;29.63;;;11.77;;
51260;SDS011;61705;46.228;24.812;2023-04-25T07:49:16;17.92;;;10.05;;
51260;SDS011;61705;46.228;24.812;2023-04-25T07:51:46;42.88;;;13.77;;
51260;SDS011;61705;46.228;24.812;2023-04-25T07:54:16;36.55;;;14.60;;
51260;SDS011;61705;46.228;24.812;2023-04-25T07:56:46;22.88;;;11.75;;
51260;SDS011;61705;46.228;24.812;2023-04-25T07:59:18;35.10;;;14.77;;
51260;SDS011;61705;46.228;24.812;2023-04-25T08:01:45;30.05;;;11.68;;
51260;SDS011;61705;46.228;24.812;2023-04-25T08:04:15;28.25;;;12.57;;
51260;SDS011;61705;46.228;24.812;2023-04-25T08:06:41;27.52;;;13.68;;
51260;SDS011;61705;46.228;24.812;2023-04-25T08:09:09;20.52;;;9.98;;
51260;SDS011;61705;46.228;24.812;2023-04-25T08:11:38;29.73;;;12.02;;
51260;SDS011;61705;46.228;24.812;2023-04-25T08:14:05;21.60;;;11.45;;
51260;SDS011;61705;46.228;24.812;2023-04-25T08:16:32;31.40;;;13.77;;
51260;SDS011;61705;46.228;24.812;2023-04-25T08:18:59;59.88;;;24.92;;
51260;SDS011;61705;46.228;24.812;2023-04-25T08:21:27;129.00;;;61.55;;
51260;SDS011;61705;46.228;24.812;2023-04-25T08:23:53;41.65;;;15.02;;
51260;SDS011;61705;46.228;24.812;2023-04-25T08:26:20;41.40;;;12.52;;
51260;SDS011;61705;46.228;24.812;2023-04-25T08:28:50;32.22;;;16.77;;
51260;SDS011;61705;46.228;24.812;2023-04-25T08:31:18;49.53;;;13.95;;
51260;SDS011;61705;46.228;24.812;2023-04-25T08:33:44;29.35;;;14.25;;
51260;SDS011;61705;46.228;24.812;2023-04-25T08:36:12;41.38;;;18.70;;
51260;SDS011;61705;46.228;24.812;2023-04-25T08:38:42;22.05;;;12.32;;
51260;SDS011;61705;46.228;24.812;2023-04-25T08:41:09;21.95;;;12.20;;
51260;SDS011;61705;46.228;24.812;2023-04-25T08:43:38;27.23;;;14.80;;
51260;SDS011;61705;46.228;24.812;2023-04-25T08:46:10;19.77;;;9.85;;
51260;SDS011;61705;46.228;24.812;2023-04-25T08:48:40;16.23;;;9.35;;
51260;SDS011;61705;46.228;24.812;2023-04-25T08:51:08;18.92;;;9.27;;
51260;SDS011;61705;46.228;24.812;2023-04-25T08:53:37;20.88;;;9.73;;
51260;SDS011;61705;46.228;24.812;2023-04-25T08:56:09;25.65;;;11.57;;
51260;SDS011;61705;46.228;24.812;2023-04-25T08:58:39;15.95;;;8.82;;
51260;SDS011;61705;46.228;24.812;2023-04-25T09:01:06;17.63;;;7.13;;
51260;SDS011;61705;46.228;24.812;2023-04-25T09:03:33;24.20;;;10.32;;
51260;SDS011;61705;46.228;24.812;2023-04-25T09:06:03;16.58;;;9.32;;
51260;SDS011;61705;46.228;24.812;2023-04-25T09:08:32;18.17;;;9.07;;
51260;SDS011;61705;46.228;24.812;2023-04-25T09:10:59;14.30;;;7.95;;
51260;SDS011;61705;46.228;24.812;2023-04-25T09:13:31;11.25;;;7.32;;
51260;SDS011;61705;46.228;24.812;2023-04-25T09:16:01;18.45;;;9.30;;
51260;SDS011;61705;46.228;24.812;2023-04-25T09:18:28;15.38;;;8.52;;
51260;SDS011;61705;46.228;24.812;2023-04-25T09:20:58;12.52;;;7.72;;
51260;SDS011;61705;46.228;24.812;2023-04-25T09:23:47;18.10;;;8.95;;
51260;SDS011;61705;46.228;24.812;2023-04-25T09:26:19;16.08;;;7.90;;
51260;SDS011;61705;46.228;24.812;2023-04-25T09:28:48;17.70;;;8.50;;
51260;SDS011;61705;46.228;24.812;2023-04-25T09:31:22;16.55;;;8.15;;
51260;SDS011;61705;46.228;24.812;2023-04-25T09:33:59;20.85;;;9.43;;
51260;SDS011;61705;46.228;24.812;2023-04-25T09:36:27;16.95;;;9.63;;
51260;SDS011;61705;46.228;24.812;2023-04-25T09:38:56;17.98;;;9.50;;
51260;SDS011;61705;46.228;24.812;2023-04-25T09:41:28;14.43;;;8.82;;
51260;SDS011;61705;46.228;24.812;2023-04-25T09:43:57;14.38;;;8.30;;
51260;SDS011;61705;46.228;24.812;2023-04-25T09:46:34;19.02;;;8.40;;
51260;SDS011;61705;46.228;24.812;2023-04-25T09:49:06;12.13;;;7.18;;
51260;SDS011;61705;46.228;24.812;2023-04-25T09:51:34;12.65;;;7.60;;
51260;SDS011;61705;46.228;24.812;2023-04-25T09:54:02;11.57;;;7.07;;
51260;SDS011;61705;46.228;24.812;2023-04-25T09:56:29;12.45;;;8.30;;
51260;SDS011;61705;46.228;24.812;2023-04-25T09:59:02;10.40;;;6.00;;
51260;SDS011;61705;46.228;24.812;2023-04-25T10:01:32;21.33;;;11.68;;
51260;SDS011;61705;46.228;24.812;2023-04-25T10:04:10;13.25;;;7.85;;
51260;SDS011;61705;46.228;24.812;2023-04-25T10:06:44;9.32;;;5.93;;
51260;SDS011;61705;46.228;24.812;2023-04-25T10:09:12;9.57;;;6.25;;
51260;SDS011;61705;46.228;24.812;2023-04-25T10:11:40;14.18;;;7.18;;
51260;SDS011;61705;46.228;24.812;2023-04-25T10:14:07;15.02;;;7.57;;
51260;SDS011;61705;46.228;24.812;2023-04-25T10:16:34;14.07;;;5.93;;
51260;SDS011;61705;46.228;24.812;2023-04-25T10:19:04;28.73;;;9.82;;
51260;SDS011;61705;46.228;24.812;2023-04-25T10:21:31;20.60;;;8.88;;
51260;SDS011;61705;46.228;24.812;2023-04-25T10:24:00;11.65;;;6.10;;
51260;SDS011;61705;46.228;24.812;2023-04-25T10:26:28;14.95;;;7.32;;
51260;SDS011;61705;46.228;24.812;2023-04-25T10:29:00;17.08;;;7.25;;
51260;SDS011;61705;46.228;24.812;2023-04-25T10:31:33;14.93;;;8.23;;
51260;SDS011;61705;46.228;24.812;2023-04-25T10:34:11;16.30;;;8.75;;
51260;SDS011;61705;46.228;24.812;2023-04-25T10:36:38;11.40;;;7.15;;
51260;SDS011;61705;46.228;24.812;2023-04-25T10:39:06;16.85;;;7.57;;
51260;SDS011;61705;46.228;24.812;2023-04-25T10:41:45;16.13;;;7.25;;
51260;SDS011;61705;46.228;24.812;2023-04-25T10:44:14;21.15;;;8.00;;
51260;SDS011;61705;46.228;24.812;2023-04-25T10:46:41;26.08;;;8.43;;
51260;SDS011;61705;46.228;24.812;2023-04-25T10:49:11;16.58;;;9.48;;
51260;SDS011;61705;46.228;24.812;2023-04-25T10:54:58;19.55;;;7.15;;
51260;SDS011;61705;46.228;24.812;2023-04-25T11:02:42;18.65;;;7.55;;
51260;SDS011;61705;46.228;24.812;2023-04-25T11:05:17;15.35;;;8.30;;
51260;SDS011;61705;46.228;24.812;2023-04-25T11:07:52;25.73;;;10.38;;
51260;SDS011;61705;46.228;24.812;2023-04-25T11:10:33;29.60;;;17.88;;
51260;SDS011;61705;46.228;24.812;2023-04-25T11:13:04;17.42;;;7.05;;
51260;SDS011;61705;46.228;24.812;2023-04-25T11:15:31;27.80;;;13.25;;
51260;SDS011;61705;46.228;24.812;2023-04-25T11:17:58;17.60;;;8.02;;
51260;SDS011;61705;46.228;24.812;2023-04-25T11:20:25;19.45;;;7.97;;
51260;SDS011;61705;46.228;24.812;2023-04-25T11:22:57;15.23;;;7.00;;
51260;SDS011;61705;46.228;24.812;2023-04-25T11:25:32;17.98;;;7.47;;
51260;SDS011;61705;46.228;24.812;2023-04-25T11:28:06;12.05;;;5.88;;
51260;SDS011;61705;46.228;24.812;2023-04-25T11:30:35;10.95;;;6.90;;
51260;SDS011;61705;46.228;24.812;2023-04-25T11:33:04;10.57;;;6.30;;
51260;SDS011;61705;46.228;24.812;2023-04-25T11:35:39;19.77;;;6.72;;
51260;SDS011;61705;46.228;24.812;2023-04-25T11:38:08;10.85;;;6.75;;
51260;SDS011;61705;46.228;24.812;2023-04-25T11:40:39;10.38;;;6.05;;
51260;SDS011;61705;46.228;24.812;2023-04-25T11:43:06;11.27;;;6.20;;
51260;SDS011;61705;46.228;24.812;2023-04-25T11:45:36;13.15;;;6.68;;
51260;SDS011;61705;46.228;24.812;2023-04-25T11:48:03;17.48;;;6.90;;
51260;SDS011;61705;46.228;24.812;2023-04-25T11:50:32;9.40;;;6.78;;
51260;SDS011;61705;46.228;24.812;2023-04-25T11:53:01;18.45;;;6.65;;
51260;SDS011;61705;46.228;24.812;2023-04-25T11:55:27;14.85;;;6.82;;
51260;SDS011;61705;46.228;24.812;2023-04-25T11:57:56;15.00;;;6.85;;
51260;SDS011;61705;46.228;24.812;2023-04-25T12:00:28;13.10;;;7.72;;
51260;SDS011;61705;46.228;24.812;2023-04-25T12:02:56;13.38;;;8.02;;
51260;SDS011;61705;46.228;24.812;2023-04-25T12:05:31;14.65;;;9.75;;
51260;SDS011;61705;46.228;24.812;2023-04-25T12:08:11;14.02;;;9.10;;
51260;SDS011;61705;46.228;24.812;2023-04-25T12:10:42;12.27;;;9.75;;
51260;SDS011;61705;46.228;24.812;2023-04-25T12:13:25;11.57;;;7.63;;
51260;SDS011;61705;46.228;24.812;2023-04-25T12:15:54;12.43;;;6.93;;
51260;SDS011;61705;46.228;24.812;2023-04-25T12:18:23;11.30;;;6.63;;
51260;SDS011;61705;46.228;24.812;2023-04-25T12:20:53;12.88;;;7.18;;
51260;SDS011;61705;46.228;24.812;2023-04-25T12:23:29;12.48;;;7.15;;
51260;SDS011;61705;46.228;24.812;2023-04-25T12:25:57;17.05;;;9.35;;
51260;SDS011;61705;46.228;24.812;2023-04-25T12:28:26;11.68;;;7.20;;
51260;SDS011;61705;46.228;24.812;2023-04-25T12:30:59;9.32;;;5.65;;
51260;SDS011;61705;46.228;24.812;2023-04-25T12:33:29;11.30;;;6.38;;
51260;SDS011;61705;46.228;24.812;2023-04-25T12:35:58;9.98;;;6.78;;
51260;SDS011;61705;46.228;24.812;2023-04-25T12:38:31;10.00;;;5.50;;
51260;SDS011;61705;46.228;24.812;2023-04-25T12:41:05;7.78;;;4.82;;
51260;SDS011;61705;46.228;24.812;2023-04-25T12:43:32;23.30;;;11.25;;
51260;SDS011;61705;46.228;24.812;2023-04-25T12:45:59;10.27;;;7.10;;
51260;SDS011;61705;46.228;24.812;2023-04-25T12:48:28;12.38;;;8.23;;
51260;SDS011;61705;46.228;24.812;2023-04-25T12:50:55;10.50;;;6.45;;
51260;SDS011;61705;46.228;24.812;2023-04-25T12:53:24;9.93;;;5.05;;
51260;SDS011;61705;46.228;24.812;2023-04-25T12:55:51;8.07;;;5.15;;
51260;SDS011;61705;46.228;24.812;2023-04-25T12:58:18;5.90;;;4.00;;
51260;SDS011;61705;46.228;24.812;2023-04-25T13:00:46;8.05;;;5.15;;
51260;SDS011;61705;46.228;24.812;2023-04-25T13:03:13;10.57;;;6.45;;
51260;SDS011;61705;46.228;24.812;2023-04-25T13:05:41;10.18;;;5.13;;
51260;SDS011;61705;46.228;24.812;2023-04-25T13:08:08;10.23;;;6.38;;
51260;SDS011;61705;46.228;24.812;2023-04-25T13:10:35;9.38;;;4.78;;
51260;SDS011;61705;46.228;24.812;2023-04-25T13:13:22;14.18;;;6.80;;
51260;SDS011;61705;46.228;24.812;2023-04-25T13:15:49;10.88;;;6.22;;
51260;SDS011;61705;46.228;24.812;2023-04-25T13:18:16;10.10;;;5.03;;
51260;SDS011;61705;46.228;24.812;2023-04-25T13:20:43;7.07;;;4.45;;
51260;SDS011;61705;46.228;24.812;2023-04-25T13:23:10;8.30;;;4.13;;
51260;SDS011;61705;46.228;24.812;2023-04-25T13:25:36;17.00;;;8.05;;
51260;SDS011;61705;46.228;24.812;2023-04-25T13:28:03;15.25;;;4.78;;
51260;SDS011;61705;46.228;24.812;2023-04-25T13:30:30;5.40;;;2.88;;
51260;SDS011;61705;46.228;24.812;2023-04-25T13:33:00;23.92;;;5.88;;
51260;SDS011;61705;46.228;24.812;2023-04-25T13:35:32;16.33;;;3.83;;
51260;SDS011;61705;46.228;24.812;2023-04-25T13:38:00;42.35;;;6.85;;
51260;SDS011;61705;46.228;24.812;2023-04-25T13:40:30;6.95;;;3.28;;
51260;SDS011;61705;46.228;24.812;2023-04-25T13:42:58;8.43;;;3.13;;
51260;SDS011;61705;46.228;24.812;2023-04-25T13:45:25;18.10;;;5.03;;
51260;SDS011;61705;46.228;24.812;2023-04-25T13:47:52;32.30;;;6.88;;
51260;SDS011;61705;46.228;24.812;2023-04-25T13:50:22;17.95;;;4.53;;
51260;SDS011;61705;46.228;24.812;2023-04-25T13:52:51;8.80;;;4.35;;
51260;SDS011;61705;46.228;24.812;2023-04-25T13:55:18;5.43;;;3.25;;
51260;SDS011;61705;46.228;24.812;2023-04-25T13:57:45;8.07;;;3.60;;
51260;SDS011;61705;46.228;24.812;2023-04-25T14:00:12;10.48;;;3.75;;
51260;SDS011;61705;46.228;24.812;2023-04-25T14:02:40;8.93;;;3.60;;
51260;SDS011;61705;46.228;24.812;2023-04-25T14:05:09;4.30;;;2.60;;
51260;SDS011;61705;46.228;24.812;2023-04-25T14:07:36;7.85;;;3.58;;
51260;SDS011;61705;46.228;24.812;2023-04-25T14:10:03;7.57;;;3.58;;
51260;SDS011;61705;46.228;24.812;2023-04-25T14:12:31;7.05;;;4.30;;
51260;SDS011;61705;46.228;24.812;2023-04-25T14:15:02;5.63;;;3.00;;
51260;SDS011;61705;46.228;24.812;2023-04-25T14:17:29;11.20;;;3.42;;
51260;SDS011;61705;46.228;24.812;2023-04-25T14:19:56;7.13;;;3.30;;
51260;SDS011;61705;46.228;24.812;2023-04-25T14:22:23;7.18;;;4.35;;
51260;SDS011;61705;46.228;24.812;2023-04-25T14:24:53;7.35;;;4.43;;
51260;SDS011;61705;46.228;24.812;2023-04-25T14:27:22;8.30;;;4.47;;
51260;SDS011;61705;46.228;24.812;2023-04-25T14:29:49;6.75;;;3.70;;